Timeline UpdatesTrip UpdatesNews PostsPvt PostsTravel TipsAdmin PostsConv PostsFollowed PostsChat RequestsBlog PostsPNR Posts

Disclaimer
Search
 
 
Fri Apr 25, 2014 09:47:01 ISTHomeTrainsΣChainsAtlasPNRForumGalleryNewsFAQTripsMembersLoginFeedback
No Recent News for this Train
Other Trains in the News **new
Latest...
.
Fri Feb 21, 2014 (02:20PM)
⇐ Return Journey: Train# 13008

13007/Udyan Abha Toofan Express

Feb 21 2014 (2:33PM)
Change Departure Station:
Change Arrival Station:
Post a Train Travel TipPost a Train Travel Tip **new
Post a Comment/Question/Picture/VideoPost a Comment/Question/Picture/Video
Inaugural Run
Wed Jan 01, 1930
Pantry/Catering
✕ NO Pantry Car
✕ NO Catering
Loco/Rake Reversals
AGC/Agra Cantt. (6);
RSA - Rake Sharing
Rake/Coach Composition
LOCO-SLR-GEN-GEN-B1-S5-S4-S3-S2-S1-GEN-GEN-SLR-HCPV-HCPV.
Loco
HWH-NDLS: HWH WAP-4 NDLS-SGNR: TKD WDM-3A
News    PNR    Forum    Time-Table    Availability    Fare Chart    Map    Arr/Dep History    Trips    Gallery    ΣChains    X/O    Timeline    
Travel Time: 32h 5m    58 halts    Distance: 1353 km    Avg Speed: 42 km/hr
Type: Mail/Express
Zone: ER/Eastern
Departs @ 22:55 (Avg 1h 49m late)
Platform# ???
SMTWTFS
Raghunathpur/RPR 
Arrives @ 07:00 +2 nights (Avg 4h 4m late)
Platform# 3
SMTWTFS
Shri Ganganagar/SGNR 

58 halts. 213 intermediate Stations between Raghunathpur and Shri Ganganagar

Show ALL intermediate Stations  Show Old Time-Table

#CodeStation NameX/OArrivesAvgDepartsAvgHaltPFDay#KmSpeedElevZoneAddress
1HWHKolkata Howrah Junction (23)  -09:35+29111-629.44210mERHowrah 711101, West Bengal
2BDCBandel Junction (7)X  10:32+3210:37+335m--1-589.87014mERdist - HOOGHLY, West Bengal
3BWNBarddhaman Junction (8)X  11:35+3811:40+375m--1-522.58234mERDist - Barddhaman, West Bengal
4PANPanagarh (4)  12:15+4312:16+451m--1-474.65570mERKaksa, West Bengal
5DGRDurgapur (5)X  12:33+4112:35+412m31-459.07971mERDurgapur, West Bengal
6UDLAndal Junction (6)X  12:48+4512:50+452m--1-441.96286mERAndal, West Bengal
7RNGRaniGanj (4)X  12:57+4812:58+501m--1-434.63492mERRaniganj, West Bengal
8ASNAsansol Junction (7)X  13:30+3813:35+435m41-416.540113mERDist - bardhaman, West Bengal
9STNSitarampur Junction (5)  13:48+4413:50+452m--1-407.858139mERG T Rd Before Asansol, West Bengal
10CRJChittaranjan (3)X  14:07+4514:08+471m31-391.566182mERMihijam, Jharkhand
11JMTJamtara (2)X  14:21+4614:22+481m11-377.163201mERJamtara, Jharkhand
12VDSVidyasagar (2)  14:39+5014:40+511m--1-359.266250mERJamtara, Jharkhand
13MDPMadhupur Junction (4)  15:02+5215:12+5010m21-335.167254mER06432-224478, Jharkhand
14JSMEJasidih Junction (5)  15:38+5315:43+535m--1-306.080271mERJasidih, Jharkhand
15STLSimultala (2)X  16:02+5116:03+511m--1-280.630247mERSimultala, Bihar
16JAJJhajha (4)  16:40+4416:45+465m31-261.962143mECRJhajha, Bihar
17GHRGidhaur (2)X  16:56+5016:57+511m--1-250.573106mECRState Highway 18, Bihar
18JMUJamui (3)X  17:09+5417:10+571m--1-235.99481mECRState Highway 72, Bihar
19MNPMananpur (2)  17:23+5817:24+1:021m--1-215.51757mECRState Highway 18, Bihar
20BSQPBansipur  17:33+1:0117:34+1:031m--1-213.02653mECRKiul, Bihar
21KIULKiul Junction (5)X  17:44+1:0117:48+1:004m31-208.61253mECRDist. Lakhisarai, Bihar
22LKRLuckeesarai Junction (2)X  17:55+1:0017:56+1:001m--1-207.23852mECRLakhisarai, Bihar
23DMRXDumri Halt (1)  18:13+5918:14+591m11-196.45149mECRNational Highway 80, Bihar
24BRYABarhiya  18:19+5818:20+591m--1-192.15647mECRBarahiya, Bihar
25HTZHathidah Junction (2)X  18:30+1:0018:31+1:011m21-182.85650mECRMusahari, Bihar
26MKAMokama Junction (3)X  18:40+1:0318:44+1:044m--1-174.47248mECRPatna, Bihar
27MORMorX  18:50+1:0618:51+1:061m--1-167.25546mECRMor, Bihar
28PHKPunarakh  19:00+1:0519:01+1:061m--1-158.96251mECRPunarakh, Bihar
29BARHBarh (3)X  19:11+1:0619:12+1:101m--1-148.56949mECRBarh, Bihar
30ATLAthmal Gola (2)XO  19:20+1:0919:21+1:091m--1-139.32252mECRPatna, Bihar
31BKPBakhtiyarpur Junction (5)X  19:46+5519:48+572m--1-130.27951mECRPatna, Bihar
32KOOKhusropur (2)  19:59+5920:00+1:071m--1-115.75652mECRPatna, Bihar
33FUTFatwa (6)X  20:09+1:0920:10+1:111m--1-107.27353mECRPatna, Bihar
34PNCPatna Saheb (3)X  20:20+1:1520:21+1:181m--1-95.02659mECRPatna, Bihar
35GZHGulzarbagh (3)X  20:28+1:1720:29+1:221m--1-92.02055mECRPatna, Bihar
36PNBEPatna Junction (10)X  20:50+1:1721:00+1:2310m--1-85.13857mECRPatna 800001, Bihar
37DNRDanapur (5)XO  21:15+1:3021:25+1:3010m--1-75.75658mECRKhagaul, Bihar
38SDESadisopur (2)  21:39+1:3921:40+1:401m--1-62.65164mECRSadisopur, Bihar
39BTABihta (2)X  21:45+1:3921:46+1:421m--1-58.43962mECRBihta, Bihar
40KUAKulharia (2)  22:05+1:3822:06+1:401m--1-46.15461mECRChandi Sahar Rd, Bihar
41ARAAra Junction (3)  22:17+1:4022:22+1:405m--1-36.29263mECRarrah( 06182-233411), Bihar
42BEABihiya  22:36+1:4422:37+1:461m--1-14.85167mECRBehea, Bihar
43BYNBanahi  22:44+1:4522:45+1:461m--1-8.85967mECRBanahi, Bihar
44RPR»Raghunathpur»  22:54+1:4522:55+1:491m--10.07469mECRRaghunathpur, Bihar
45DUREDumraon (3)  23:08+1:5023:09+1:521m--116.06170mECRDumraon, Bihar
46BXRBuxar (3)X  23:25+1:5323:30+1:555m--132.38067mECRBuxar, Bihar
47DLNDildarnagar Junction (2)  23:57+1:5723:59+1:572m--168.55872mECRDildarnagar, Uttar Pradesh
48ZNAZamaniaXO  00:13+1:5400:14+1:561m--282.02077mECRGhazipur, Uttar Pradesh
49MGSMughal Sarai Junction (8)XO  02:25+5202:40+5415m--2126.25583mECRMughalsarai 232101, Uttar Pradesh
50CARChunar Junction (5)X  03:15+1:1603:16+1:201m22158.16185mNCRChunar Junction, Uttar Pradesh
51MZPMirzapur (3)O  03:47+1:3703:48+1:401m--2189.44988mNCRMirzapur, Uttar Pradesh
52BDLVindhyachal (3)  03:57+1:4703:58+1:501m--2196.77488mNCRMirzapur, Uttar Pradesh
53ALDAllahabad Junction (10)X  05:05+3:0505:15+3:0710m22278.977100mNCRAllahabad 211003, Uttar Pradesh
54BREBharwariX  05:44+3:2605:45+3:291m--2316.075108mNCRBharwari, Uttar Pradesh
55SROSirathu (2)X  06:01+3:3306:02+3:361m12336.171109mNCRSirathu, Uttar Pradesh
56KGAKhaga (3)  06:23+3:4206:24+3:451m--2361.052114mNCRFatehpur, Uttar Pradesh
57FTPFatehpur (3)  07:04+3:3907:05+3:471m--2395.758120mNCRFatehpur, Uttar Pradesh
58CNBKanpur Central (10)  08:25+4:0308:40+4:0615m22473.336128mNCRKanpur, Uttar Pradesh
59PNKPanki (3)  08:59+4:1309:00+4:141m--2484.886129mNCRKANPUR-208 020, Uttar Pradesh
60RURARura (4)  09:23+4:1709:24+4:211m--2517.671137mNCRJhinjhak, Uttar Pradesh
61JJKJhinjhak (3)  09:40+4:2209:41+4:241m32536.674140mNCRAuraiya, Uttar Pradesh
62PHDPhaphund (4)X  09:57+4:3309:58+4:361m--2556.567146mNCRdist. Auraiya, Uttar Pradesh
63ULDAchalda (3)X  10:13+4:3610:14+4:371m--2573.273147mNCRDist. Auraiya(05688-1072), Uttar Pradesh
64BNTBharthana (3)X  10:30+4:3810:31+4:411m--2592.852147mNCRBharthana, Uttar Pradesh
65ETWEtawah (5)  10:54+4:3910:55+4:451m22612.662154mNCRDistt. Etawah, Uttar Pradesh
66SKBShikohabad Junction (4)X  11:49+5:0011:50+4:571m32668.038166mNCRDistrict Firozabad, Uttar Pradesh
67FZDFirozabad (4)  12:21+4:5612:22+5:011m32687.923164mNCRFirozabad, Uttar Pradesh
68TDLTundla Junction (4)  13:05+4:5213:15+4:5010m22704.421167mNCRDistt.Firozabad, Uttar Pradesh
69AFAgra Fort (3)  14:20+4:4514:25+4:575m22727.414170mNCRRakabganj, Uttar Pradesh
70IDHIdgah Agra Junction (3)  14:34+4:5914:35+5:101m--2729.55168mNCRAgra, Uttar Pradesh
71AGCAgra Cantt. (6)XO15:00+4:5715:20+5:1220m32731.713174mNCRAgra, Uttar Pradesh
72RKMRaja Ki Mandi (4)  15:38+5:0815:39+5:091m12735.765170mNCRAgra, Uttar Pradesh
73MTJMathura Junction (10)  16:25+5:1316:33+5:118m22785.472179mNCRMathura, Uttar Pradesh
74CHJChata (4)X  16:59+5:1217:00+5:131m--2816.651185mNCRChhata, Uttar Pradesh
75KSVKosi Kalan (3)X  17:12+5:1317:13+5:141m12826.855189mNCRKosi Kalan, Uttar Pradesh
76PWLPalwal (8)X  17:59+5:0318:00+5:071m--2869.356200mNRPalwal, Haryana
77ASTAsaoti (5)  18:12+5:0718:13+5:081m32880.659203mNRAsaoti, Haryana
78BVHBallabgarh (5)  18:23+5:1118:24+5:111m--2890.544203mNRFaridabad, Haryana
79FDBFaridabad (4)  18:35+5:1118:36+5:121m22898.648206mNRFaridabad, Haryana
80TKDTuglakabad (4)X  18:50+5:1218:51+5:071m--2909.733213mNRNear Tughlakabad Metro Station, Delhi NCT
81OKAOkhla (4)X  19:02+5:1219:03+5:071m--2915.718221mNRIshwar Nagar Mathura Road, Delhi NCT
82NZMDelhi Hazrat Nizamuddin (7)X  19:15+5:0919:17+5:092m32919.348209mNRNizamuddin East/Sarai KaleKhan Bus Terminal, Delhi NCT
83TKJTilak Bridge (4)X  19:23+5:0719:24+5:061m--2924.19214mNRNew Delhi, Delhi NCT
84NDLSNew Delhi (16)X  19:40+5:0220:10+5:0130m22926.614215mNRAjmeri Gate/Paharganj, Delhi NCT
85DKZDelhi KishanGanj (2)  20:27+5:0620:28+5:071m--2930.432220mNRSarai Rohilla, Delhi NCT
86SSBShakur BastiX  20:41+5:0820:42+5:091m--2937.450216mNRPitampura, Delhi NCT
87BGZBahadurgarh  21:06+5:1021:07+5:111m--2957.372220mNRBahadurgarh, Haryana
88SPZSamplaX  21:22+5:1321:23+5:131m--2975.350222mNRSampla, Haryana
89ROKRohtak Junction (3)  21:50+5:0821:55+5:065m--2997.667220mNRRohtak, Haryana
90JNAJulana  22:23+5:0422:24+5:041m--21029.050226mNRJulana, Haryana
91JINDJind Junction (3)  22:55+4:5823:00+4:575m--21054.770222mNR126102., Haryana
92UCAUchana  23:16+4:5923:17+4:591m--21073.465225mNRDistrict Jind, Haryana
93NRWNarwana Junction (4)  23:31+5:0123:32+5:021m--21088.673235mNRWay to Narwana, Haryana
94TUNTohana (2)  23:53+5:0223:54+5:031m--21114.135232mNRTohana, Haryana
95JHLJakhal Junction  00:15+5:0000:25+4:5510m--31126.343225mNRJakhal, Haryana
96BLZBudhladaX  01:06+4:5001:07+4:451m--31155.948223mNRBudhlada, Punjab
97MSZMansa  01:27+4:4701:28+4:481m--31172.049222mNRMansa, Punjab
98MAURMaur  01:51+4:4801:52+4:481m--31190.726220mNRMaur Mandi, Punjab
99BTIBathinda Junction (6)XO  03:15+4:2304:05+4:1050m231226.273208mNRBathinda, Punjab
100GDBGiddarbaha  04:28+4:1704:29+4:251m--31254.157200mNRGiddarbaha, Punjab
101MOTMalout (1)  04:46+4:2604:47+4:281m131270.244194mNRMalaut, Punjab
102ABSAbohar  05:27+4:1905:28+4:231m--31299.835186mNRAbohar, Punjab
103SGNR•Shri Ganganagar•  07:00+4:04-331352.8-178mNWRSri Ganganagar, Rajasthan
Scroll to Top
Scroll to Bottom